createdAt,value
2019-01-22T00:01:55.434Z,26.33
2019-01-22T00:04:56.419Z,24.93
2019-01-22T00:07:57.826Z,27.30
2019-01-22T00:10:58.539Z,30.47
2019-01-22T00:13:59.206Z,28.83
2019-01-22T00:16:59.880Z,28.33
2019-01-22T00:20:00.530Z,29.83
2019-01-22T00:23:07.450Z,25.97
2019-01-22T00:26:08.372Z,27.93
2019-01-22T00:29:08.982Z,26.43
2019-01-22T00:32:09.716Z,24.43
2019-01-22T00:35:10.330Z,28.33
2019-01-22T00:38:15.372Z,25.60
2019-01-22T00:41:16.143Z,27.00
2019-01-22T00:44:16.839Z,27.97
2019-01-22T00:47:17.459Z,27.00
2019-01-22T00:50:19.367Z,25.23
2019-01-22T00:53:19.940Z,28.93
2019-01-22T00:56:20.766Z,26.10
2019-01-22T00:59:21.536Z,27.00
2019-01-22T01:02:22.246Z,25.97
2019-01-22T01:05:23.330Z,24.53
2019-01-22T01:08:23.977Z,29.33
2019-01-22T01:11:24.658Z,26.53
2019-01-22T01:14:25.285Z,28.37
2019-01-22T01:17:26.319Z,26.50
2019-01-22T01:20:26.962Z,25.87
2019-01-22T01:23:27.582Z,25.83
2019-01-22T01:26:28.326Z,26.13
2019-01-22T01:29:28.947Z,26.10
2019-01-22T01:32:29.559Z,26.27
2019-01-22T01:35:30.203Z,24.87
2019-01-22T01:38:30.866Z,27.47
2019-01-22T01:41:31.581Z,26.90
2019-01-22T01:44:33.867Z,25.57
2019-01-22T01:47:34.495Z,24.30
2019-01-22T01:50:37.459Z,24.50
2019-01-22T01:53:38.199Z,26.80
2019-01-22T01:56:38.744Z,26.73
2019-01-22T01:59:40.049Z,25.13
2019-01-22T02:02:40.678Z,24.30
2019-01-22T02:05:41.407Z,26.53
2019-01-22T02:08:42.167Z,25.87
2019-01-22T02:11:42.778Z,25.53
2019-01-22T02:14:53.638Z,24.53
2019-01-22T02:18:58.167Z,25.30
2019-01-22T02:22:17.575Z,26.17
2019-01-22T02:25:34.948Z,25.17
2019-01-22T02:28:57.122Z,24.20
2019-01-22T02:32:29.346Z,24.23
2019-01-22T02:35:57.225Z,24.50
2019-01-22T02:39:24.996Z,27.07
2019-01-22T02:42:58.452Z,27.93
2019-01-22T02:46:22.584Z,25.03
2019-01-22T02:49:48.226Z,26.97
2019-01-22T02:52:57.235Z,27.00
2019-01-22T02:56:44.416Z,24.03
2019-01-22T03:00:17.707Z,28.50
2019-01-22T03:03:52.484Z,23.27
2019-01-22T03:07:31.272Z,24.90
2019-01-22T03:11:02.663Z,24.93
2019-01-22T03:14:47.331Z,22.70
2019-01-22T03:18:32.075Z,21.17
2019-01-22T03:21:44.344Z,24.47
2019-01-22T03:25:16.024Z,22.03
2019-01-22T03:28:44.883Z,23.23
2019-01-22T03:32:00.168Z,23.87
2019-01-22T03:35:23.170Z,25.83
2019-01-22T03:38:47.749Z,25.90
2019-01-22T03:42:19.399Z,23.97
2019-01-22T03:46:04.368Z,27.23
2019-01-22T03:49:33.659Z,25.10
2019-01-22T03:52:59.570Z,24.10
2019-01-22T03:56:42.567Z,22.27
2019-01-22T03:59:43.210Z,24.67
2019-01-22T04:02:45.419Z,23.83
2019-01-22T04:05:48.794Z,21.63
2019-01-22T04:08:50.177Z,24.00
2019-01-22T04:11:54.539Z,25.53
2019-01-22T04:14:55.541Z,24.13
2019-01-22T04:17:56.094Z,22.83
2019-01-22T04:20:56.639Z,23.13
2019-01-22T04:24:27.558Z,22.60
2019-01-22T04:28:12.508Z,23.87
2019-01-22T04:31:56.648Z,21.70
2019-01-22T04:35:53.119Z,25.63
2019-01-22T04:39:36.291Z,20.83
2019-01-22T04:43:30.167Z,23.47
2019-01-22T04:47:20.437Z,21.77
2019-01-22T04:50:41.255Z,23.27
2019-01-22T04:54:09.828Z,21.93
2019-01-22T04:57:43.034Z,22.20
2019-01-22T05:01:18.966Z,23.30
2019-01-22T05:04:31.750Z,24.47
2019-01-22T05:07:48.465Z,26.40
2019-01-22T05:11:24.771Z,23.73
2019-01-22T05:14:56.546Z,26.23
2019-01-22T05:18:41.523Z,25.53
2019-01-22T05:22:23.375Z,21.33
2019-01-22T05:25:52.082Z,23.63
2019-01-22T05:29:18.607Z,20.80
2019-01-22T05:32:49.346Z,22.23
2019-01-22T05:36:27.806Z,21.43
2019-01-22T05:40:00.374Z,22.70
2019-01-22T05:44:00.475Z,23.07
2019-01-22T05:47:32.903Z,22.70
2019-01-22T05:51:11.428Z,21.80
2019-01-22T05:54:34.959Z,22.03
2019-01-22T05:58:11.973Z,22.23
2019-01-22T06:01:29.892Z,22.37
2019-01-22T06:05:07.566Z,25.20
2019-01-22T06:08:47.829Z,22.33
2019-01-22T06:12:40.882Z,23.77
2019-01-22T06:16:06.978Z,23.00
2019-01-22T06:19:39.314Z,21.93
2019-01-22T06:23:17.376Z,25.37
2019-01-22T06:26:39.686Z,23.37
2019-01-22T06:30:24.741Z,24.00
2019-01-22T06:34:16.995Z,21.27
2019-01-22T06:37:45.547Z,21.60
2019-01-22T06:41:12.654Z,26.00
2019-01-22T06:44:50.380Z,26.70
2019-01-22T06:48:22.867Z,24.83
2019-01-22T06:51:52.309Z,24.37
2019-01-22T06:55:31.712Z,20.90
2019-01-22T06:58:47.962Z,20.97
2019-01-22T07:02:04.119Z,25.10
2019-01-22T07:05:30.949Z,23.50
2019-01-22T07:09:30.498Z,25.53
2019-01-22T07:12:55.610Z,27.43
2019-01-22T07:16:45.653Z,21.07
2019-01-22T07:20:21.004Z,22.73
2019-01-22T07:23:49.945Z,21.93
2019-01-22T07:27:12.684Z,21.43
2019-01-22T07:30:45.567Z,23.83
2019-01-22T07:34:54.425Z,22.33
2019-01-22T07:38:28.640Z,21.87
2019-01-22T07:41:54.505Z,21.57
2019-01-22T07:45:17.871Z,24.27
2019-01-22T07:48:23.740Z,21.63
2019-01-22T07:51:48.319Z,24.37
2019-01-22T07:55:49.266Z,22.30
2019-01-22T07:59:02.217Z,23.77
2019-01-22T08:02:56.243Z,20.97
2019-01-22T08:06:22.513Z,25.17
2019-01-22T08:10:08.370Z,22.87
2019-01-22T08:13:48.127Z,20.37
2019-01-22T08:17:25.371Z,21.07
2019-01-22T08:21:13.435Z,23.27
2019-01-22T08:25:00.595Z,20.63
2019-01-22T08:28:41.472Z,21.90
2019-01-22T08:32:18.397Z,20.43
2019-01-22T08:35:55.907Z,22.77
2019-01-22T08:39:34.746Z,20.90
2019-01-22T08:43:07.056Z,21.47
2019-01-22T08:46:45.710Z,19.23
2019-01-22T08:50:23.361Z,21.57
2019-01-22T08:54:08.361Z,20.83
2019-01-22T08:57:55.815Z,21.53
2019-01-22T09:01:16.127Z,21.43
2019-01-22T09:05:07.715Z,20.60
2019-01-22T09:08:22.891Z,21.20
2019-01-22T09:11:58.519Z,21.57
2019-01-22T09:15:43.619Z,19.10
2019-01-22T09:19:33.986Z,20.03
2019-01-22T09:23:03.845Z,22.50
2019-01-22T09:26:48.917Z,19.73
2019-01-22T09:30:02.714Z,19.80
2019-01-22T09:33:30.349Z,20.87
2019-01-22T09:36:53.494Z,19.90
2019-01-22T09:39:54.117Z,21.27
2019-01-22T09:42:54.641Z,20.90
2019-01-22T09:45:55.290Z,23.53
2019-01-22T09:48:56.412Z,18.20
2019-01-22T09:51:57.036Z,23.00
2019-01-22T09:55:00.233Z,20.23
2019-01-22T09:58:00.816Z,19.87
2019-01-22T10:01:01.417Z,18.97
2019-01-22T10:04:03.607Z,20.03
2019-01-22T10:07:08.529Z,19.03
2019-01-22T10:10:12.880Z,17.70
2019-01-22T10:13:13.538Z,18.93
2019-01-22T10:16:14.174Z,18.87
2019-01-22T10:19:14.981Z,21.13
2019-01-22T10:22:15.691Z,20.23
2019-01-22T10:25:16.302Z,21.53
2019-01-22T10:28:23.210Z,18.40
2019-01-22T10:31:23.782Z,19.17
2019-01-22T10:34:24.353Z,20.03
2019-01-22T10:37:26.931Z,18.10
2019-01-22T10:40:27.342Z,17.67
2019-01-22T10:43:27.927Z,18.60
2019-01-22T10:46:28.895Z,18.97
2019-01-22T10:49:29.742Z,17.70
2019-01-22T10:52:30.387Z,20.03
2019-01-22T10:55:36.257Z,19.63
2019-01-22T10:58:33.497Z,21.30
2019-01-22T11:01:34.307Z,15.37
2019-01-22T11:04:35.353Z,18.33
2019-01-22T11:07:36.096Z,21.83
2019-01-22T11:10:36.690Z,17.67
2019-01-22T11:13:38.782Z,20.50
2019-01-22T11:16:39.349Z,17.50
2019-01-22T11:19:41.416Z,17.60
2019-01-22T11:22:41.974Z,18.23
2019-01-22T11:25:43.651Z,18.70
2019-01-22T11:28:46.421Z,17.87
2019-01-22T11:31:47.090Z,17.90
2019-01-22T11:34:47.631Z,17.27
2019-01-22T11:37:48.292Z,17.97
2019-01-22T11:40:54.013Z,16.63
2019-01-22T11:43:54.669Z,18.77
2019-01-22T11:46:55.319Z,15.50
2019-01-22T11:49:55.867Z,18.43
2019-01-22T11:52:56.839Z,18.60
2019-01-22T11:55:57.420Z,15.67
2019-01-22T11:58:58.011Z,17.57
2019-01-22T12:01:58.649Z,18.43
2019-01-22T12:04:59.247Z,17.80
2019-01-22T12:08:05.346Z,18.70
2019-01-22T12:11:06.270Z,16.17
2019-01-22T12:14:06.890Z,17.80
2019-01-22T12:17:07.520Z,17.87
2019-01-22T12:20:12.549Z,18.77
2019-01-22T12:23:13.617Z,16.10
2019-01-22T12:26:15.506Z,17.67
2019-01-22T12:29:17.561Z,15.43
2019-01-22T12:32:18.162Z,16.53
2019-01-22T12:35:21.579Z,17.73
2019-01-22T12:38:22.141Z,14.03
2019-01-22T12:41:22.734Z,14.70
2019-01-22T12:44:23.334Z,17.20
2019-01-22T12:47:27.126Z,16.10
2019-01-22T12:50:28.593Z,14.93
2019-01-22T12:53:30.201Z,14.63
2019-01-22T12:56:30.847Z,17.03
2019-01-22T12:59:33.575Z,16.67
2019-01-22T13:02:34.230Z,18.53
2019-01-22T13:05:44.634Z,13.77
2019-01-22T13:08:45.220Z,15.97
2019-01-22T13:11:46.159Z,15.37
2019-01-22T13:14:46.843Z,13.43
2019-01-22T13:17:47.603Z,15.23
2019-01-22T13:20:50.470Z,16.23
2019-01-22T13:23:51.153Z,14.10
2019-01-22T13:26:52.213Z,19.47
2019-01-22T13:29:52.902Z,15.20
2019-01-22T13:32:53.687Z,18.00
2019-01-22T13:35:54.496Z,15.50
2019-01-22T13:38:55.116Z,19.53
2019-01-22T13:41:55.869Z,14.30
2019-01-22T13:44:58.489Z,15.47
2019-01-22T13:48:00.020Z,11.77
2019-01-22T13:51:00.672Z,12.90
2019-01-22T13:54:01.293Z,15.07
2019-01-22T13:57:04.656Z,17.13
2019-01-22T14:00:07.143Z,12.40
2019-01-22T14:03:09.644Z,15.83
2019-01-22T14:06:10.747Z,13.87
2019-01-22T14:09:11.357Z,13.50
2019-01-22T14:12:12.026Z,15.77
2019-01-22T14:15:25.404Z,15.97
2019-01-22T14:18:26.005Z,14.13
2019-01-22T14:21:26.607Z,11.80
2019-01-22T14:24:27.235Z,14.17
2019-01-22T14:27:28.029Z,12.97
2019-01-22T14:30:31.290Z,14.70
2019-01-22T14:33:31.964Z,10.97
2019-01-22T14:36:34.408Z,13.57
2019-01-22T14:39:35.048Z,12.67
2019-01-22T14:42:38.388Z,11.23
2019-01-22T14:45:40.753Z,11.47
2019-01-22T14:48:44.386Z,12.03
2019-01-22T14:51:45.366Z,10.87
2019-01-22T14:54:46.217Z,10.30
2019-01-22T14:57:50.443Z,24.03
2019-01-22T15:00:51.491Z,28.30
2019-01-22T15:03:52.426Z,24.00
2019-01-22T15:06:53.406Z,20.53
2019-01-22T15:09:57.017Z,22.57
2019-01-22T15:12:59.812Z,24.47
2019-01-22T15:16:00.476Z,23.87
2019-01-22T15:19:01.183Z,19.90
2019-01-22T15:22:01.820Z,20.80
2019-01-22T15:25:03.403Z,20.47
2019-01-22T15:28:04.229Z,17.90
2019-01-22T15:31:04.990Z,17.83
2019-01-22T15:34:05.971Z,22.67
2019-01-22T15:37:06.525Z,18.93
2019-01-22T15:40:10.278Z,20.20
2019-01-22T15:43:16.386Z,17.30
2019-01-22T15:46:18.875Z,17.87
2019-01-22T15:49:21.869Z,16.60
2019-01-22T15:52:22.611Z,17.97
2019-01-22T15:55:27.652Z,16.90
2019-01-22T15:58:28.367Z,21.40
2019-01-22T16:01:29.337Z,15.23
2019-01-22T16:04:29.969Z,15.27
2019-01-22T16:07:35.855Z,16.30
2019-01-22T16:10:40.495Z,17.10
2019-01-22T16:13:41.270Z,13.83
2019-01-22T16:16:42.078Z,13.97
2019-01-22T16:19:44.449Z,14.43
2019-01-22T16:22:45.169Z,14.47
2019-01-22T16:25:45.876Z,17.23
2019-01-22T16:28:52.687Z,14.37
2019-01-22T16:31:53.385Z,11.90
2019-01-22T16:34:53.988Z,15.07
2019-01-22T16:37:55.787Z,15.93
2019-01-22T16:40:56.862Z,14.83
2019-01-22T16:43:57.719Z,15.50
2019-01-22T16:46:58.595Z,15.37
2019-01-22T16:49:59.429Z,12.57
2019-01-22T16:53:01.856Z,12.53
2019-01-22T16:56:08.346Z,13.93
2019-01-22T16:59:09.178Z,16.73
2019-01-22T17:02:10.020Z,16.20
2019-01-22T17:05:11.809Z,16.97
2019-01-22T17:08:12.907Z,15.70
2019-01-22T17:11:13.686Z,18.47
2019-01-22T17:14:14.295Z,18.10
2019-01-22T17:17:15.061Z,16.97
2019-01-22T17:20:19.713Z,18.60
2019-01-22T17:23:20.832Z,17.00
2019-01-22T17:26:21.573Z,18.13
2019-01-22T17:29:22.338Z,16.43
2019-01-22T17:32:35.706Z,16.70
2019-01-22T17:35:42.648Z,17.07
2019-01-22T17:38:43.586Z,19.47
2019-01-22T17:41:44.226Z,17.20
2019-01-22T17:44:44.926Z,18.33
2019-01-22T17:47:46.052Z,19.00
2019-01-22T17:50:46.779Z,16.77
2019-01-22T17:53:47.532Z,17.57
2019-01-22T17:56:48.411Z,15.03
2019-01-22T17:59:50.060Z,16.97
2019-01-22T18:02:51.176Z,15.30
2019-01-22T18:05:53.244Z,16.73
2019-01-22T18:08:53.922Z,17.53
2019-01-22T18:11:54.551Z,17.97
2019-01-22T18:14:55.187Z,16.87
2019-01-22T18:17:56.097Z,15.40
2019-01-22T18:20:56.923Z,17.30
2019-01-22T18:23:57.570Z,16.40
2019-01-22T18:26:58.501Z,15.10
2019-01-22T18:29:59.247Z,16.97
2019-01-22T18:33:03.176Z,17.60
2019-01-22T18:36:04.009Z,17.03
2019-01-22T18:39:06.865Z,16.43
2019-01-22T18:42:10.253Z,17.20
2019-01-22T18:45:12.808Z,17.27
2019-01-22T18:48:15.225Z,13.67
2019-01-22T18:51:16.598Z,16.47
2019-01-22T18:54:17.273Z,19.17
2019-01-22T18:57:18.296Z,17.27
2019-01-22T19:00:21.208Z,15.43
2019-01-22T19:03:22.283Z,15.80
2019-01-22T19:06:23.202Z,17.60
2019-01-22T19:09:26.674Z,16.03
2019-01-22T19:12:30.533Z,15.50
2019-01-22T19:15:33.735Z,16.83
2019-01-22T19:18:34.493Z,18.17
2019-01-22T19:21:35.491Z,17.17
2019-01-22T19:24:38.297Z,17.57
2019-01-22T19:27:42.780Z,18.80
2019-01-22T19:30:41.770Z,19.17
2019-01-22T19:33:42.562Z,18.73
2019-01-22T19:36:43.323Z,22.07
2019-01-22T19:39:44.139Z,17.40
2019-01-22T19:42:44.862Z,18.00
2019-01-22T19:45:45.713Z,20.27
2019-01-22T19:48:46.573Z,17.37
2019-01-22T19:51:47.729Z,19.87
2019-01-22T19:54:48.472Z,19.30
2019-01-22T19:57:49.762Z,19.17
2019-01-22T20:00:52.768Z,19.23
2019-01-22T20:03:53.948Z,17.03
2019-01-22T20:06:55.201Z,19.03
2019-01-22T20:09:58.868Z,20.07
2019-01-22T20:12:59.442Z,16.97
2019-01-22T20:16:00.207Z,18.50
2019-01-22T20:19:02.106Z,16.60
2019-01-22T20:22:02.972Z,18.73
2019-01-22T20:25:03.760Z,19.13
2019-01-22T20:28:04.586Z,21.33
2019-01-22T20:31:05.534Z,17.37
2019-01-22T20:34:06.456Z,17.60
2019-01-22T20:37:07.281Z,20.70
2019-01-22T20:40:11.004Z,18.37
2019-01-22T20:43:11.746Z,19.43
2019-01-22T20:46:12.694Z,21.50
2019-01-22T20:49:13.464Z,18.20
2019-01-22T20:52:14.522Z,16.47
2019-01-22T20:55:17.096Z,18.27
2019-01-22T20:58:17.890Z,15.73
2019-01-22T21:01:20.631Z,20.40
2019-01-22T21:04:21.710Z,18.57
2019-01-22T21:07:22.455Z,20.20
2019-01-22T21:10:34.640Z,17.87
2019-01-22T21:13:35.549Z,20.37
2019-01-22T21:16:36.455Z,20.37
2019-01-22T21:19:37.132Z,18.03
2019-01-22T21:22:38.354Z,18.93
2019-01-22T21:25:39.092Z,19.70
2019-01-22T21:28:39.915Z,17.70
2019-01-22T21:31:40.926Z,20.50
2019-01-22T21:34:48.085Z,19.27
2019-01-22T21:37:49.963Z,15.50
2019-01-22T21:40:51.759Z,17.77
2019-01-22T21:43:54.640Z,20.77
2019-01-22T21:46:55.891Z,17.73
2019-01-22T21:49:56.902Z,17.47
2019-01-22T21:52:57.627Z,19.77
2019-01-22T21:55:58.655Z,19.80
2019-01-22T21:58:59.432Z,19.43
2019-01-22T22:02:00.485Z,22.77
2019-01-22T22:05:01.527Z,20.00
2019-01-22T22:08:02.453Z,20.73
2019-01-22T22:11:03.155Z,17.37
2019-01-22T22:14:04.319Z,21.80
2019-01-22T22:17:04.801Z,19.17
2019-01-22T22:20:07.508Z,18.83
2019-01-22T22:23:08.162Z,19.90
2019-01-22T22:26:10.132Z,19.13
2019-01-22T22:29:10.771Z,18.00
2019-01-22T22:32:11.386Z,18.37
2019-01-22T22:35:14.757Z,19.37
2019-01-22T22:38:15.411Z,19.80
2019-01-22T22:41:16.058Z,21.90
2019-01-22T22:44:19.420Z,20.47
2019-01-22T22:47:20.073Z,17.90
2019-01-22T22:50:23.249Z,18.00
2019-01-22T22:53:24.255Z,15.50
2019-01-22T22:56:25.188Z,20.53
2019-01-22T22:59:25.941Z,17.33
2019-01-22T23:02:26.618Z,18.90
2019-01-22T23:05:27.427Z,19.90
2019-01-22T23:08:28.319Z,19.00
2019-01-22T23:11:29.220Z,19.70
2019-01-22T23:14:29.946Z,18.40
2019-01-22T23:17:30.523Z,17.33
2019-01-22T23:20:32.271Z,19.80
2019-01-22T23:23:33.228Z,22.17
2019-01-22T23:26:33.923Z,18.87
2019-01-22T23:29:34.763Z,18.53
2019-01-22T23:32:35.348Z,20.87
2019-01-22T23:35:35.953Z,19.57
2019-01-22T23:38:36.538Z,20.50
2019-01-22T23:41:37.218Z,18.40
2019-01-22T23:44:37.888Z,20.97
2019-01-22T23:47:38.550Z,20.57
2019-01-22T23:50:41.471Z,19.17
2019-01-22T23:53:42.081Z,18.53
2019-01-22T23:56:42.824Z,18.47
2019-01-22T23:59:43.411Z,18.57
